sensor_id;sensor_type;location;lat;lon;timestamp;P1;durP1;ratioP1;P2;durP2;ratioP2
43857;SDS011;29507;51.284;5.758;2022-09-12T00:01:48;25.40;;;13.43;;
43857;SDS011;29507;51.284;5.758;2022-09-12T00:04:14;29.20;;;15.20;;
43857;SDS011;29507;51.284;5.758;2022-09-12T00:06:40;25.75;;;14.23;;
43857;SDS011;29507;51.284;5.758;2022-09-12T00:09:08;28.52;;;14.55;;
43857;SDS011;29507;51.284;5.758;2022-09-12T00:11:37;26.15;;;14.48;;
43857;SDS011;29507;51.284;5.758;2022-09-12T00:14:05;27.37;;;15.27;;
43857;SDS011;29507;51.284;5.758;2022-09-12T00:16:33;27.90;;;13.82;;
43857;SDS011;29507;51.284;5.758;2022-09-12T00:19:00;27.55;;;15.80;;
43857;SDS011;29507;51.284;5.758;2022-09-12T00:21:27;32.88;;;14.75;;
43857;SDS011;29507;51.284;5.758;2022-09-12T00:23:53;28.38;;;14.85;;
43857;SDS011;29507;51.284;5.758;2022-09-12T00:26:19;28.60;;;14.73;;
43857;SDS011;29507;51.284;5.758;2022-09-12T00:28:46;30.80;;;15.25;;
43857;SDS011;29507;51.284;5.758;2022-09-12T00:31:13;26.45;;;14.13;;
43857;SDS011;29507;51.284;5.758;2022-09-12T00:33:43;29.60;;;12.85;;
43857;SDS011;29507;51.284;5.758;2022-09-12T00:36:11;21.83;;;10.95;;
43857;SDS011;29507;51.284;5.758;2022-09-12T00:38:39;25.65;;;10.95;;
43857;SDS011;29507;51.284;5.758;2022-09-12T00:41:06;25.30;;;11.35;;
43857;SDS011;29507;51.284;5.758;2022-09-12T00:43:41;24.27;;;11.93;;
43857;SDS011;29507;51.284;5.758;2022-09-12T00:49:00;25.05;;;13.88;;
43857;SDS011;29507;51.284;5.758;2022-09-12T00:51:28;29.25;;;13.70;;
43857;SDS011;29507;51.284;5.758;2022-09-12T00:53:58;25.42;;;12.43;;
43857;SDS011;29507;51.284;5.758;2022-09-12T00:56:26;24.42;;;12.35;;
43857;SDS011;29507;51.284;5.758;2022-09-12T00:58:54;28.60;;;13.02;;
43857;SDS011;29507;51.284;5.758;2022-09-12T01:01:26;25.10;;;13.20;;
43857;SDS011;29507;51.284;5.758;2022-09-12T01:03:52;29.25;;;13.15;;
43857;SDS011;29507;51.284;5.758;2022-09-12T01:06:20;28.85;;;13.27;;
43857;SDS011;29507;51.284;5.758;2022-09-12T01:08:52;28.58;;;13.70;;
43857;SDS011;29507;51.284;5.758;2022-09-12T01:11:19;26.60;;;12.65;;
43857;SDS011;29507;51.284;5.758;2022-09-12T01:13:46;27.48;;;13.45;;
43857;SDS011;29507;51.284;5.758;2022-09-12T01:16:12;26.70;;;13.05;;
43857;SDS011;29507;51.284;5.758;2022-09-12T01:35:26;38.88;;;16.60;;
43857;SDS011;29507;51.284;5.758;2022-09-12T01:47:09;26.27;;;12.05;;
43857;SDS011;29507;51.284;5.758;2022-09-12T01:49:46;27.50;;;12.32;;
43857;SDS011;29507;51.284;5.758;2022-09-12T01:52:16;29.95;;;12.95;;
43857;SDS011;29507;51.284;5.758;2022-09-12T01:54:53;33.47;;;15.07;;
43857;SDS011;29507;51.284;5.758;2022-09-12T01:57:40;37.60;;;15.50;;
43857;SDS011;29507;51.284;5.758;2022-09-12T02:00:16;35.33;;;13.75;;
43857;SDS011;29507;51.284;5.758;2022-09-12T02:02:48;34.40;;;15.43;;
43857;SDS011;29507;51.284;5.758;2022-09-12T02:05:33;32.13;;;13.90;;
43857;SDS011;29507;51.284;5.758;2022-09-12T02:08:16;41.90;;;14.88;;
43857;SDS011;29507;51.284;5.758;2022-09-12T02:10:50;34.60;;;15.65;;
43857;SDS011;29507;51.284;5.758;2022-09-12T02:13:24;43.70;;;16.48;;
43857;SDS011;29507;51.284;5.758;2022-09-12T02:15:57;42.17;;;14.65;;
43857;SDS011;29507;51.284;5.758;2022-09-12T02:18:27;34.50;;;13.27;;
43857;SDS011;29507;51.284;5.758;2022-09-12T02:20:56;30.88;;;11.80;;
43857;SDS011;29507;51.284;5.758;2022-09-12T02:23:26;29.17;;;14.23;;
43857;SDS011;29507;51.284;5.758;2022-09-12T02:28:32;41.00;;;15.63;;
43857;SDS011;29507;51.284;5.758;2022-09-12T02:31:02;41.47;;;14.67;;
43857;SDS011;29507;51.284;5.758;2022-09-12T02:33:48;37.15;;;13.60;;
43857;SDS011;29507;51.284;5.758;2022-09-12T02:36:45;35.45;;;13.02;;
43857;SDS011;29507;51.284;5.758;2022-09-12T02:39:19;30.27;;;12.45;;
43857;SDS011;29507;51.284;5.758;2022-09-12T02:41:51;36.38;;;14.57;;
43857;SDS011;29507;51.284;5.758;2022-09-12T02:44:20;31.23;;;12.50;;
43857;SDS011;29507;51.284;5.758;2022-09-12T02:46:49;31.02;;;13.63;;
43857;SDS011;29507;51.284;5.758;2022-09-12T02:49:19;29.23;;;12.15;;
43857;SDS011;29507;51.284;5.758;2022-09-12T02:51:46;27.75;;;12.00;;
43857;SDS011;29507;51.284;5.758;2022-09-12T02:54:13;33.05;;;13.18;;
43857;SDS011;29507;51.284;5.758;2022-09-12T02:56:40;31.83;;;12.52;;
43857;SDS011;29507;51.284;5.758;2022-09-12T02:59:07;34.00;;;12.35;;
43857;SDS011;29507;51.284;5.758;2022-09-12T03:10:58;29.40;;;11.50;;
43857;SDS011;29507;51.284;5.758;2022-09-12T03:13:25;32.10;;;13.27;;
43857;SDS011;29507;51.284;5.758;2022-09-12T03:26:43;30.08;;;13.13;;
43857;SDS011;29507;51.284;5.758;2022-09-12T03:29:18;30.80;;;12.13;;
43857;SDS011;29507;51.284;5.758;2022-09-12T03:31:52;32.40;;;13.00;;
43857;SDS011;29507;51.284;5.758;2022-09-12T03:34:20;37.67;;;13.18;;
43857;SDS011;29507;51.284;5.758;2022-09-12T03:36:47;37.05;;;14.63;;
43857;SDS011;29507;51.284;5.758;2022-09-12T03:39:14;41.20;;;13.82;;
43857;SDS011;29507;51.284;5.758;2022-09-12T03:41:40;38.22;;;13.35;;
43857;SDS011;29507;51.284;5.758;2022-09-12T03:44:06;32.88;;;13.20;;
43857;SDS011;29507;51.284;5.758;2022-09-12T03:46:32;35.17;;;13.20;;
43857;SDS011;29507;51.284;5.758;2022-09-12T03:48:57;33.90;;;12.82;;
43857;SDS011;29507;51.284;5.758;2022-09-12T03:51:23;35.60;;;11.80;;
43857;SDS011;29507;51.284;5.758;2022-09-12T03:53:50;33.42;;;11.88;;
43857;SDS011;29507;51.284;5.758;2022-09-12T03:56:16;33.63;;;12.35;;
43857;SDS011;29507;51.284;5.758;2022-09-12T03:58:43;34.67;;;11.32;;
43857;SDS011;29507;51.284;5.758;2022-09-12T04:01:09;41.80;;;13.93;;
43857;SDS011;29507;51.284;5.758;2022-09-12T04:03:40;48.67;;;14.88;;
43857;SDS011;29507;51.284;5.758;2022-09-12T04:06:08;41.72;;;13.80;;
43857;SDS011;29507;51.284;5.758;2022-09-12T04:08:34;52.15;;;17.20;;
43857;SDS011;29507;51.284;5.758;2022-09-12T04:11:02;53.55;;;16.98;;
43857;SDS011;29507;51.284;5.758;2022-09-12T04:13:31;41.30;;;14.57;;
43857;SDS011;29507;51.284;5.758;2022-09-12T04:15:57;41.90;;;13.85;;
43857;SDS011;29507;51.284;5.758;2022-09-12T04:18:24;46.72;;;16.08;;
43857;SDS011;29507;51.284;5.758;2022-09-12T04:20:49;39.45;;;14.27;;
43857;SDS011;29507;51.284;5.758;2022-09-12T04:23:15;41.30;;;13.18;;
43857;SDS011;29507;51.284;5.758;2022-09-12T04:25:41;44.03;;;14.32;;
43857;SDS011;29507;51.284;5.758;2022-09-12T04:28:06;36.95;;;12.40;;
43857;SDS011;29507;51.284;5.758;2022-09-12T04:30:32;53.25;;;15.35;;
43857;SDS011;29507;51.284;5.758;2022-09-12T04:32:58;61.28;;;17.10;;
43857;SDS011;29507;51.284;5.758;2022-09-12T04:35:24;49.40;;;16.38;;
43857;SDS011;29507;51.284;5.758;2022-09-12T04:37:50;48.83;;;14.85;;
43857;SDS011;29507;51.284;5.758;2022-09-12T04:40:16;47.90;;;14.88;;
43857;SDS011;29507;51.284;5.758;2022-09-12T04:42:43;41.72;;;14.18;;
43857;SDS011;29507;51.284;5.758;2022-09-12T04:45:09;43.60;;;14.02;;
43857;SDS011;29507;51.284;5.758;2022-09-12T04:47:35;36.55;;;13.27;;
43857;SDS011;29507;51.284;5.758;2022-09-12T04:50:00;52.05;;;14.60;;
43857;SDS011;29507;51.284;5.758;2022-09-12T04:52:26;41.85;;;12.93;;
43857;SDS011;29507;51.284;5.758;2022-09-12T04:54:52;41.33;;;13.18;;
43857;SDS011;29507;51.284;5.758;2022-09-12T04:57:18;46.60;;;14.02;;
43857;SDS011;29507;51.284;5.758;2022-09-12T04:59:43;48.15;;;15.77;;
43857;SDS011;29507;51.284;5.758;2022-09-12T05:02:09;39.78;;;13.52;;
43857;SDS011;29507;51.284;5.758;2022-09-12T05:04:34;42.75;;;15.52;;
43857;SDS011;29507;51.284;5.758;2022-09-12T05:07:00;46.75;;;14.65;;
43857;SDS011;29507;51.284;5.758;2022-09-12T05:09:26;51.08;;;15.73;;
43857;SDS011;29507;51.284;5.758;2022-09-12T05:11:53;47.50;;;15.93;;
43857;SDS011;29507;51.284;5.758;2022-09-12T05:14:18;43.42;;;14.93;;
43857;SDS011;29507;51.284;5.758;2022-09-12T05:16:44;49.88;;;14.68;;
43857;SDS011;29507;51.284;5.758;2022-09-12T05:19:10;45.63;;;15.13;;
43857;SDS011;29507;51.284;5.758;2022-09-12T05:21:36;53.22;;;14.90;;
43857;SDS011;29507;51.284;5.758;2022-09-12T05:24:02;44.70;;;15.27;;
43857;SDS011;29507;51.284;5.758;2022-09-12T05:26:30;51.33;;;16.20;;
43857;SDS011;29507;51.284;5.758;2022-09-12T05:28:55;57.00;;;16.85;;
43857;SDS011;29507;51.284;5.758;2022-09-12T05:31:23;51.58;;;17.95;;
43857;SDS011;29507;51.284;5.758;2022-09-12T05:33:50;51.72;;;17.55;;
43857;SDS011;29507;51.284;5.758;2022-09-12T05:36:24;49.78;;;17.20;;
43857;SDS011;29507;51.284;5.758;2022-09-12T05:38:51;56.25;;;16.95;;
43857;SDS011;29507;51.284;5.758;2022-09-12T05:41:18;52.40;;;16.27;;
43857;SDS011;29507;51.284;5.758;2022-09-12T05:43:46;48.38;;;16.98;;
43857;SDS011;29507;51.284;5.758;2022-09-12T05:46:17;44.88;;;15.13;;
43857;SDS011;29507;51.284;5.758;2022-09-12T05:48:44;43.78;;;15.30;;
43857;SDS011;29507;51.284;5.758;2022-09-12T05:51:13;47.60;;;15.43;;
43857;SDS011;29507;51.284;5.758;2022-09-12T05:53:45;51.97;;;16.65;;
43857;SDS011;29507;51.284;5.758;2022-09-12T05:56:16;52.97;;;16.10;;
43857;SDS011;29507;51.284;5.758;2022-09-12T05:58:44;48.50;;;15.90;;
43857;SDS011;29507;51.284;5.758;2022-09-12T06:01:13;52.30;;;16.80;;
43857;SDS011;29507;51.284;5.758;2022-09-12T06:03:41;47.17;;;16.13;;
43857;SDS011;29507;51.284;5.758;2022-09-12T06:06:12;54.15;;;17.02;;
43857;SDS011;29507;51.284;5.758;2022-09-12T06:08:40;50.03;;;17.42;;
43857;SDS011;29507;51.284;5.758;2022-09-12T06:11:08;59.70;;;18.75;;
43857;SDS011;29507;51.284;5.758;2022-09-12T06:13:37;53.00;;;16.83;;
43857;SDS011;29507;51.284;5.758;2022-09-12T06:16:07;53.63;;;19.70;;
43857;SDS011;29507;51.284;5.758;2022-09-12T06:18:36;62.00;;;20.13;;
43857;SDS011;29507;51.284;5.758;2022-09-12T06:21:05;55.38;;;19.73;;
43857;SDS011;29507;51.284;5.758;2022-09-12T06:23:32;47.50;;;16.88;;
43857;SDS011;29507;51.284;5.758;2022-09-12T06:25:58;45.22;;;16.85;;
43857;SDS011;29507;51.284;5.758;2022-09-12T06:28:24;44.83;;;17.85;;
43857;SDS011;29507;51.284;5.758;2022-09-12T06:30:51;52.85;;;19.33;;
43857;SDS011;29507;51.284;5.758;2022-09-12T06:33:17;48.15;;;17.67;;
43857;SDS011;29507;51.284;5.758;2022-09-12T06:35:43;43.28;;;15.93;;
43857;SDS011;29507;51.284;5.758;2022-09-12T06:38:09;49.22;;;18.48;;
43857;SDS011;29507;51.284;5.758;2022-09-12T06:40:44;44.70;;;18.52;;
43857;SDS011;29507;51.284;5.758;2022-09-12T06:43:10;41.28;;;18.83;;
43857;SDS011;29507;51.284;5.758;2022-09-12T06:45:37;40.13;;;18.17;;
43857;SDS011;29507;51.284;5.758;2022-09-12T06:48:03;40.05;;;17.70;;
43857;SDS011;29507;51.284;5.758;2022-09-12T06:50:29;39.00;;;18.52;;
43857;SDS011;29507;51.284;5.758;2022-09-12T06:52:55;32.95;;;16.90;;
43857;SDS011;29507;51.284;5.758;2022-09-12T06:55:21;33.35;;;16.48;;
43857;SDS011;29507;51.284;5.758;2022-09-12T06:57:48;29.17;;;15.30;;
43857;SDS011;29507;51.284;5.758;2022-09-12T07:00:14;30.63;;;16.67;;
43857;SDS011;29507;51.284;5.758;2022-09-12T07:02:40;29.05;;;15.00;;
43857;SDS011;29507;51.284;5.758;2022-09-12T07:05:05;30.52;;;16.20;;
43857;SDS011;29507;51.284;5.758;2022-09-12T07:07:32;35.60;;;16.63;;
43857;SDS011;29507;51.284;5.758;2022-09-12T07:09:59;29.45;;;14.13;;
43857;SDS011;29507;51.284;5.758;2022-09-12T07:12:26;29.50;;;15.75;;
43857;SDS011;29507;51.284;5.758;2022-09-12T07:14:53;29.42;;;17.60;;
43857;SDS011;29507;51.284;5.758;2022-09-12T07:17:18;33.40;;;18.42;;
43857;SDS011;29507;51.284;5.758;2022-09-12T07:19:44;29.17;;;17.58;;
43857;SDS011;29507;51.284;5.758;2022-09-12T07:22:09;26.40;;;16.20;;
43857;SDS011;29507;51.284;5.758;2022-09-12T07:24:35;32.67;;;17.42;;
43857;SDS011;29507;51.284;5.758;2022-09-12T07:27:01;25.10;;;15.70;;
43857;SDS011;29507;51.284;5.758;2022-09-12T07:29:26;20.27;;;13.60;;
43857;SDS011;29507;51.284;5.758;2022-09-12T07:31:52;18.45;;;12.70;;
43857;SDS011;29507;51.284;5.758;2022-09-12T07:34:18;22.17;;;13.48;;
43857;SDS011;29507;51.284;5.758;2022-09-12T07:36:44;17.40;;;12.55;;
43857;SDS011;29507;51.284;5.758;2022-09-12T07:39:09;20.00;;;13.07;;
43857;SDS011;29507;51.284;5.758;2022-09-12T07:41:35;20.33;;;12.23;;
43857;SDS011;29507;51.284;5.758;2022-09-12T07:44:01;19.08;;;12.48;;
43857;SDS011;29507;51.284;5.758;2022-09-12T07:46:28;19.58;;;12.52;;
43857;SDS011;29507;51.284;5.758;2022-09-12T07:48:55;20.73;;;13.15;;
43857;SDS011;29507;51.284;5.758;2022-09-12T07:51:23;19.38;;;13.77;;
43857;SDS011;29507;51.284;5.758;2022-09-12T07:53:50;15.80;;;12.18;;
43857;SDS011;29507;51.284;5.758;2022-09-12T07:56:16;15.98;;;11.75;;
43857;SDS011;29507;51.284;5.758;2022-09-12T07:58:43;18.88;;;12.35;;
43857;SDS011;29507;51.284;5.758;2022-09-12T08:01:10;17.15;;;11.60;;
43857;SDS011;29507;51.284;5.758;2022-09-12T08:03:43;15.88;;;11.30;;
43857;SDS011;29507;51.284;5.758;2022-09-12T08:06:12;14.98;;;10.48;;
43857;SDS011;29507;51.284;5.758;2022-09-12T08:08:40;14.95;;;10.50;;
43857;SDS011;29507;51.284;5.758;2022-09-12T08:11:10;15.23;;;9.85;;
43857;SDS011;29507;51.284;5.758;2022-09-12T08:13:38;16.08;;;11.07;;
43857;SDS011;29507;51.284;5.758;2022-09-12T08:16:06;14.60;;;10.38;;
43857;SDS011;29507;51.284;5.758;2022-09-12T08:18:35;19.35;;;11.35;;
43857;SDS011;29507;51.284;5.758;2022-09-12T08:21:03;16.88;;;10.43;;
43857;SDS011;29507;51.284;5.758;2022-09-12T08:23:30;15.15;;;11.30;;
43857;SDS011;29507;51.284;5.758;2022-09-12T08:25:57;15.75;;;11.20;;
43857;SDS011;29507;51.284;5.758;2022-09-12T08:28:25;13.98;;;11.20;;
43857;SDS011;29507;51.284;5.758;2022-09-12T08:30:52;17.58;;;10.18;;
43857;SDS011;29507;51.284;5.758;2022-09-12T08:33:18;17.02;;;11.10;;
43857;SDS011;29507;51.284;5.758;2022-09-12T08:35:44;14.68;;;10.93;;
43857;SDS011;29507;51.284;5.758;2022-09-12T08:38:10;18.48;;;11.50;;
43857;SDS011;29507;51.284;5.758;2022-09-12T08:41:37;16.35;;;10.77;;
43857;SDS011;29507;51.284;5.758;2022-09-12T08:43:40;14.15;;;10.52;;
43857;SDS011;29507;51.284;5.758;2022-09-12T08:46:31;13.80;;;10.35;;
43857;SDS011;29507;51.284;5.758;2022-09-12T08:49:06;13.60;;;10.57;;
43857;SDS011;29507;51.284;5.758;2022-09-12T08:51:35;13.70;;;9.93;;
43857;SDS011;29507;51.284;5.758;2022-09-12T08:54:02;15.20;;;9.55;;
43857;SDS011;29507;51.284;5.758;2022-09-12T08:56:35;13.52;;;9.27;;
43857;SDS011;29507;51.284;5.758;2022-09-12T08:59:02;14.55;;;9.75;;
43857;SDS011;29507;51.284;5.758;2022-09-12T09:04:05;16.00;;;10.98;;
43857;SDS011;29507;51.284;5.758;2022-09-12T09:12:46;11.43;;;8.52;;
43857;SDS011;29507;51.284;5.758;2022-09-12T09:18:22;17.02;;;8.68;;
43857;SDS011;29507;51.284;5.758;2022-09-12T09:20:59;15.63;;;8.75;;
43857;SDS011;29507;51.284;5.758;2022-09-12T09:23:30;11.63;;;8.05;;
43857;SDS011;29507;51.284;5.758;2022-09-12T09:28:44;12.48;;;7.20;;
43857;SDS011;29507;51.284;5.758;2022-09-12T09:31:12;11.50;;;7.35;;
43857;SDS011;29507;51.284;5.758;2022-09-12T09:33:39;11.82;;;5.90;;
43857;SDS011;29507;51.284;5.758;2022-09-12T09:36:22;8.70;;;6.47;;
43857;SDS011;29507;51.284;5.758;2022-09-12T09:39:05;14.68;;;7.53;;
43857;SDS011;29507;51.284;5.758;2022-09-12T09:44:35;9.75;;;5.50;;
43857;SDS011;29507;51.284;5.758;2022-09-12T09:47:01;8.57;;;5.65;;
43857;SDS011;29507;51.284;5.758;2022-09-12T09:49:27;9.38;;;6.78;;
43857;SDS011;29507;51.284;5.758;2022-09-12T09:51:55;7.82;;;6.20;;
43857;SDS011;29507;51.284;5.758;2022-09-12T09:54:25;8.77;;;5.20;;
43857;SDS011;29507;51.284;5.758;2022-09-12T09:56:56;8.52;;;6.20;;
43857;SDS011;29507;51.284;5.758;2022-09-12T09:59:30;8.50;;;5.35;;
43857;SDS011;29507;51.284;5.758;2022-09-12T10:04:39;8.75;;;6.30;;
43857;SDS011;29507;51.284;5.758;2022-09-12T10:07:10;13.13;;;6.63;;
43857;SDS011;29507;51.284;5.758;2022-09-12T10:09:44;7.53;;;5.78;;
43857;SDS011;29507;51.284;5.758;2022-09-12T10:12:30;7.53;;;4.85;;
43857;SDS011;29507;51.284;5.758;2022-09-12T10:14:57;9.95;;;6.82;;
43857;SDS011;29507;51.284;5.758;2022-09-12T10:17:28;10.27;;;6.72;;
43857;SDS011;29507;51.284;5.758;2022-09-12T10:19:57;8.10;;;5.70;;
43857;SDS011;29507;51.284;5.758;2022-09-12T10:22:23;8.63;;;5.90;;
43857;SDS011;29507;51.284;5.758;2022-09-12T10:24:53;8.25;;;5.07;;
43857;SDS011;29507;51.284;5.758;2022-09-12T10:27:24;9.98;;;5.25;;
43857;SDS011;29507;51.284;5.758;2022-09-12T10:30:04;5.60;;;4.00;;
43857;SDS011;29507;51.284;5.758;2022-09-12T10:32:35;10.02;;;5.18;;
43857;SDS011;29507;51.284;5.758;2022-09-12T10:35:04;8.38;;;4.80;;
43857;SDS011;29507;51.284;5.758;2022-09-12T10:40:05;7.57;;;5.20;;
43857;SDS011;29507;51.284;5.758;2022-09-12T10:42:50;8.35;;;4.25;;
43857;SDS011;29507;51.284;5.758;2022-09-12T10:47:54;7.63;;;4.75;;
43857;SDS011;29507;51.284;5.758;2022-09-12T10:52:54;6.82;;;4.65;;
43857;SDS011;29507;51.284;5.758;2022-09-12T10:55:36;8.73;;;4.90;;
43857;SDS011;29507;51.284;5.758;2022-09-12T10:58:08;4.90;;;3.05;;
43857;SDS011;29507;51.284;5.758;2022-09-12T11:00:43;6.18;;;3.60;;
43857;SDS011;29507;51.284;5.758;2022-09-12T11:03:15;5.85;;;3.42;;
43857;SDS011;29507;51.284;5.758;2022-09-12T11:05:52;5.85;;;3.03;;
43857;SDS011;29507;51.284;5.758;2022-09-12T11:11:08;4.47;;;2.53;;
43857;SDS011;29507;51.284;5.758;2022-09-12T11:30:16;4.60;;;2.60;;
43857;SDS011;29507;51.284;5.758;2022-09-12T11:43:30;4.28;;;2.45;;
43857;SDS011;29507;51.284;5.758;2022-09-12T11:49:02;5.60;;;2.30;;
43857;SDS011;29507;51.284;5.758;2022-09-12T11:51:43;3.60;;;1.88;;
43857;SDS011;29507;51.284;5.758;2022-09-12T11:56:54;5.40;;;2.40;;
43857;SDS011;29507;51.284;5.758;2022-09-12T11:59:37;5.70;;;2.65;;
43857;SDS011;29507;51.284;5.758;2022-09-12T12:02:16;4.93;;;2.45;;
43857;SDS011;29507;51.284;5.758;2022-09-12T12:07:49;6.40;;;2.50;;
43857;SDS011;29507;51.284;5.758;2022-09-12T12:10:24;4.00;;;2.30;;
43857;SDS011;29507;51.284;5.758;2022-09-12T12:15:56;8.15;;;3.10;;
43857;SDS011;29507;51.284;5.758;2022-09-12T12:18:29;5.70;;;3.15;;
43857;SDS011;29507;51.284;5.758;2022-09-12T12:21:14;5.07;;;2.75;;
43857;SDS011;29507;51.284;5.758;2022-09-12T12:34:33;5.10;;;2.55;;
43857;SDS011;29507;51.284;5.758;2022-09-12T12:44:56;4.30;;;2.58;;
43857;SDS011;29507;51.284;5.758;2022-09-12T12:47:24;3.72;;;2.47;;
43857;SDS011;29507;51.284;5.758;2022-09-12T12:52:50;3.53;;;2.03;;
43857;SDS011;29507;51.284;5.758;2022-09-12T12:55:23;3.22;;;1.90;;
43857;SDS011;29507;51.284;5.758;2022-09-12T12:58:24;5.60;;;2.40;;
43857;SDS011;29507;51.284;5.758;2022-09-12T13:01:14;4.88;;;2.47;;
43857;SDS011;29507;51.284;5.758;2022-09-12T13:03:43;4.35;;;2.15;;
43857;SDS011;29507;51.284;5.758;2022-09-12T13:06:21;3.92;;;2.00;;
43857;SDS011;29507;51.284;5.758;2022-09-12T13:09:03;5.57;;;2.28;;
43857;SDS011;29507;51.284;5.758;2022-09-12T13:11:54;4.32;;;2.20;;
43857;SDS011;29507;51.284;5.758;2022-09-12T13:14:33;3.95;;;2.13;;
43857;SDS011;29507;51.284;5.758;2022-09-12T13:17:33;4.63;;;2.03;;
43857;SDS011;29507;51.284;5.758;2022-09-12T13:20:18;4.80;;;2.40;;
43857;SDS011;29507;51.284;5.758;2022-09-12T13:22:53;4.72;;;2.30;;
43857;SDS011;29507;51.284;5.758;2022-09-12T13:30:58;5.88;;;2.65;;
43857;SDS011;29507;51.284;5.758;2022-09-12T13:39:27;3.28;;;1.85;;
43857;SDS011;29507;51.284;5.758;2022-09-12T13:47:35;3.08;;;1.85;;
43857;SDS011;29507;51.284;5.758;2022-09-12T13:50:11;3.80;;;1.67;;
43857;SDS011;29507;51.284;5.758;2022-09-12T13:53:04;3.60;;;1.73;;
43857;SDS011;29507;51.284;5.758;2022-09-12T13:55:40;3.13;;;1.60;;
43857;SDS011;29507;51.284;5.758;2022-09-12T13:58:16;2.50;;;1.42;;
43857;SDS011;29507;51.284;5.758;2022-09-12T14:00:44;3.03;;;1.58;;
43857;SDS011;29507;51.284;5.758;2022-09-12T14:09:14;2.75;;;1.25;;
43857;SDS011;29507;51.284;5.758;2022-09-12T14:11:50;3.30;;;1.33;;
43857;SDS011;29507;51.284;5.758;2022-09-12T14:14:18;3.05;;;1.25;;
43857;SDS011;29507;51.284;5.758;2022-09-12T14:16:51;6.18;;;1.10;;
43857;SDS011;29507;51.284;5.758;2022-09-12T14:19:18;2.78;;;1.30;;
43857;SDS011;29507;51.284;5.758;2022-09-12T14:21:46;3.28;;;1.38;;
43857;SDS011;29507;51.284;5.758;2022-09-12T14:24:11;2.83;;;1.20;;
43857;SDS011;29507;51.284;5.758;2022-09-12T14:26:38;4.22;;;1.83;;
43857;SDS011;29507;51.284;5.758;2022-09-12T14:29:07;5.90;;;1.75;;
43857;SDS011;29507;51.284;5.758;2022-09-12T14:31:33;2.65;;;1.50;;
43857;SDS011;29507;51.284;5.758;2022-09-12T14:34:14;3.13;;;1.40;;
43857;SDS011;29507;51.284;5.758;2022-09-12T14:36:52;3.75;;;1.45;;
43857;SDS011;29507;51.284;5.758;2022-09-12T14:41:49;3.63;;;1.40;;
43857;SDS011;29507;51.284;5.758;2022-09-12T14:44:18;2.67;;;1.27;;
43857;SDS011;29507;51.284;5.758;2022-09-12T14:46:48;4.43;;;1.30;;
43857;SDS011;29507;51.284;5.758;2022-09-12T14:49:24;3.30;;;1.40;;
43857;SDS011;29507;51.284;5.758;2022-09-12T14:55:00;2.47;;;1.30;;
43857;SDS011;29507;51.284;5.758;2022-09-12T14:57:32;2.20;;;1.10;;
43857;SDS011;29507;51.284;5.758;2022-09-12T15:02:47;2.33;;;1.48;;
43857;SDS011;29507;51.284;5.758;2022-09-12T15:05:15;8.13;;;2.28;;
43857;SDS011;29507;51.284;5.758;2022-09-12T15:07:50;2.70;;;1.10;;
43857;SDS011;29507;51.284;5.758;2022-09-12T15:13:04;3.75;;;1.30;;
43857;SDS011;29507;51.284;5.758;2022-09-12T15:15:35;2.97;;;1.27;;
43857;SDS011;29507;51.284;5.758;2022-09-12T15:18:01;2.45;;;1.20;;
43857;SDS011;29507;51.284;5.758;2022-09-12T15:20:28;2.65;;;1.50;;
43857;SDS011;29507;51.284;5.758;2022-09-12T15:22:53;2.55;;;1.23;;
43857;SDS011;29507;51.284;5.758;2022-09-12T15:25:20;3.65;;;2.17;;
43857;SDS011;29507;51.284;5.758;2022-09-12T15:27:45;3.17;;;1.10;;
43857;SDS011;29507;51.284;5.758;2022-09-12T15:30:11;4.82;;;1.40;;
43857;SDS011;29507;51.284;5.758;2022-09-12T15:32:38;5.22;;;1.88;;
43857;SDS011;29507;51.284;5.758;2022-09-12T15:35:23;8.70;;;2.58;;
43857;SDS011;29507;51.284;5.758;2022-09-12T15:37:56;3.70;;;1.45;;
43857;SDS011;29507;51.284;5.758;2022-09-12T15:40:22;5.93;;;2.00;;
43857;SDS011;29507;51.284;5.758;2022-09-12T15:42:48;3.72;;;1.55;;
43857;SDS011;29507;51.284;5.758;2022-09-12T15:45:23;7.28;;;1.50;;
43857;SDS011;29507;51.284;5.758;2022-09-12T15:47:51;4.82;;;2.05;;
43857;SDS011;29507;51.284;5.758;2022-09-12T15:50:17;7.25;;;1.50;;
43857;SDS011;29507;51.284;5.758;2022-09-12T15:52:43;7.97;;;2.50;;
43857;SDS011;29507;51.284;5.758;2022-09-12T15:55:16;4.05;;;1.63;;
43857;SDS011;29507;51.284;5.758;2022-09-12T15:57:44;4.30;;;1.45;;
43857;SDS011;29507;51.284;5.758;2022-09-12T16:00:10;5.32;;;1.20;;
43857;SDS011;29507;51.284;5.758;2022-09-12T16:02:36;5.43;;;1.30;;
43857;SDS011;29507;51.284;5.758;2022-09-12T16:05:03;3.78;;;1.10;;
43857;SDS011;29507;51.284;5.758;2022-09-12T16:07:29;2.20;;;1.30;;
43857;SDS011;29507;51.284;5.758;2022-09-12T16:09:54;2.88;;;1.30;;
43857;SDS011;29507;51.284;5.758;2022-09-12T16:12:20;6.90;;;1.33;;
43857;SDS011;29507;51.284;5.758;2022-09-12T16:14:46;3.55;;;1.17;;
43857;SDS011;29507;51.284;5.758;2022-09-12T16:17:11;6.78;;;1.35;;
43857;SDS011;29507;51.284;5.758;2022-09-12T16:19:37;3.03;;;1.20;;
43857;SDS011;29507;51.284;5.758;2022-09-12T16:22:02;1.92;;;1.00;;
43857;SDS011;29507;51.284;5.758;2022-09-12T16:24:28;2.60;;;1.20;;
43857;SDS011;29507;51.284;5.758;2022-09-12T16:26:54;2.60;;;1.10;;
43857;SDS011;29507;51.284;5.758;2022-09-12T16:29:19;3.78;;;1.20;;
43857;SDS011;29507;51.284;5.758;2022-09-12T16:31:45;3.83;;;1.58;;
43857;SDS011;29507;51.284;5.758;2022-09-12T16:34:10;1.98;;;1.10;;
43857;SDS011;29507;51.284;5.758;2022-09-12T16:36:36;1.92;;;1.00;;
43857;SDS011;29507;51.284;5.758;2022-09-12T16:39:02;2.58;;;1.48;;
43857;SDS011;29507;51.284;5.758;2022-09-12T16:41:28;3.90;;;1.60;;
43857;SDS011;29507;51.284;5.758;2022-09-12T16:43:53;7.57;;;1.45;;
43857;SDS011;29507;51.284;5.758;2022-09-12T16:46:20;1.83;;;1.10;;
43857;SDS011;29507;51.284;5.758;2022-09-12T16:48:48;1.60;;;0.83;;
43857;SDS011;29507;51.284;5.758;2022-09-12T16:51:16;6.18;;;1.10;;
43857;SDS011;29507;51.284;5.758;2022-09-12T16:53:44;3.30;;;1.10;;
43857;SDS011;29507;51.284;5.758;2022-09-12T16:56:10;3.30;;;0.85;;
43857;SDS011;29507;51.284;5.758;2022-09-12T16:58:36;2.97;;;1.20;;
43857;SDS011;29507;51.284;5.758;2022-09-12T17:01:10;1.83;;;1.00;;
43857;SDS011;29507;51.284;5.758;2022-09-12T17:03:38;2.38;;;1.02;;
43857;SDS011;29507;51.284;5.758;2022-09-12T17:06:08;1.63;;;1.00;;
43857;SDS011;29507;51.284;5.758;2022-09-12T17:08:34;2.42;;;0.75;;
43857;SDS011;29507;51.284;5.758;2022-09-12T17:11:05;2.10;;;0.80;;
43857;SDS011;29507;51.284;5.758;2022-09-12T17:13:33;1.88;;;1.00;;
43857;SDS011;29507;51.284;5.758;2022-09-12T17:15:59;1.88;;;1.00;;
43857;SDS011;29507;51.284;5.758;2022-09-12T17:18:28;2.78;;;1.20;;
43857;SDS011;29507;51.284;5.758;2022-09-12T17:20:54;2.25;;;1.20;;
43857;SDS011;29507;51.284;5.758;2022-09-12T17:23:19;2.55;;;1.00;;
43857;SDS011;29507;51.284;5.758;2022-09-12T17:25:48;1.92;;;0.90;;
43857;SDS011;29507;51.284;5.758;2022-09-12T17:28:18;2.15;;;0.90;;
43857;SDS011;29507;51.284;5.758;2022-09-12T17:30:44;3.17;;;0.95;;
43857;SDS011;29507;51.284;5.758;2022-09-12T17:33:10;2.03;;;1.23;;
43857;SDS011;29507;51.284;5.758;2022-09-12T17:35:37;1.58;;;0.82;;
43857;SDS011;29507;51.284;5.758;2022-09-12T17:38:06;1.42;;;0.77;;
43857;SDS011;29507;51.284;5.758;2022-09-12T17:40:33;1.83;;;0.95;;
43857;SDS011;29507;51.284;5.758;2022-09-12T17:43:00;2.80;;;1.23;;
43857;SDS011;29507;51.284;5.758;2022-09-12T17:45:26;1.65;;;1.00;;